createdAt,value
2023-02-08T00:01:10.070Z,25.70
2023-02-08T00:04:41.878Z,59.10
2023-02-08T00:12:25.609Z,26.00
2023-02-08T00:15:50.649Z,23.10
2023-02-08T00:19:49.160Z,25.70
2023-02-08T00:23:19.548Z,24.10
2023-02-08T00:34:47.592Z,20.20
2023-02-08T00:38:51.602Z,17.10
2023-02-08T00:42:23.628Z,14.80
2023-02-08T00:49:22.070Z,17.30
2023-02-08T01:00:43.017Z,9.70
2023-02-08T01:07:42.668Z,14.50
2023-02-08T01:14:53.749Z,19.60
2023-02-08T01:21:58.311Z,21.20
2023-02-08T01:25:28.692Z,20.80
2023-02-08T01:29:07.045Z,24.50
2023-02-08T01:35:50.951Z,18.20
2023-02-08T01:40:11.241Z,29.70
2023-02-08T01:47:44.680Z,33.80
2023-02-08T01:50:45.958Z,37.30
2023-02-08T01:54:39.283Z,37.90
2023-02-08T01:58:53.459Z,35.30
2023-02-08T02:02:26.055Z,41.10
2023-02-08T02:09:40.275Z,40.00
2023-02-08T02:17:41.019Z,40.00
2023-02-08T02:24:38.236Z,43.40
2023-02-08T02:31:59.084Z,50.70
2023-02-08T02:36:00.178Z,45.10
2023-02-08T02:47:34.599Z,50.10
2023-02-08T02:51:09.216Z,47.90
2023-02-08T02:54:29.516Z,52.40
2023-02-08T02:58:46.991Z,51.30
2023-02-08T03:08:38.020Z,49.40
2023-02-08T03:12:05.277Z,50.30
2023-02-08T03:15:40.898Z,45.60
2023-02-08T03:19:22.320Z,45.00
2023-02-08T03:22:49.571Z,46.70
2023-02-08T03:26:27.700Z,46.10
2023-02-08T03:36:29.147Z,49.70
2023-02-08T03:39:56.285Z,52.10
2023-02-08T03:43:16.947Z,50.30
2023-02-08T03:53:25.706Z,53.20
2023-02-08T03:56:55.321Z,54.60
2023-02-08T04:03:49.759Z,48.20
2023-02-08T04:07:08.502Z,55.70
2023-02-08T04:10:26.811Z,47.00
2023-02-08T04:13:54.415Z,53.10
2023-02-08T04:17:24.904Z,53.60
2023-02-08T04:20:43.676Z,58.30
2023-02-08T04:27:44.797Z,52.80
2023-02-08T04:31:21.325Z,49.80
2023-02-08T04:35:14.395Z,57.10
2023-02-08T04:38:48.850Z,53.30
2023-02-08T04:42:46.075Z,56.20
2023-02-08T04:52:49.218Z,49.60
2023-02-08T05:00:03.850Z,52.40
2023-02-08T05:06:36.475Z,53.40
2023-02-08T05:09:56.796Z,50.30
2023-02-08T05:13:57.920Z,55.80
2023-02-08T05:21:23.676Z,50.00
2023-02-08T05:24:55.568Z,57.40
2023-02-08T05:28:45.441Z,50.00
2023-02-08T05:36:21.308Z,49.40
2023-02-08T05:54:41.204Z,47.40
2023-02-08T05:58:19.313Z,59.40
2023-02-08T06:05:24.716Z,52.40
2023-02-08T06:08:43.019Z,51.20
2023-02-08T06:16:14.551Z,42.20
2023-02-08T06:20:28.092Z,44.40
2023-02-08T06:28:27.327Z,39.50
2023-02-08T06:31:21.355Z,33.10
2023-02-08T06:38:57.385Z,30.30
2023-02-08T06:42:33.549Z,29.50
2023-02-08T06:46:07.106Z,25.90
2023-02-08T07:15:37.958Z,25.50
2023-02-08T07:18:58.732Z,23.70
2023-02-08T07:22:46.472Z,21.40
2023-02-08T07:26:29.904Z,24.50
2023-02-08T07:30:12.121Z,24.30
2023-02-08T07:32:59.505Z,27.30
2023-02-08T07:37:00.615Z,21.50
2023-02-08T07:40:32.761Z,28.40
2023-02-08T07:43:57.259Z,17.80
2023-02-08T07:47:25.111Z,18.30
2023-02-08T07:50:44.027Z,18.10
2023-02-08T07:54:51.124Z,16.90
2023-02-08T07:58:30.051Z,16.80
2023-02-08T08:01:36.393Z,16.90
2023-02-08T08:12:32.853Z,17.20
2023-02-08T08:16:08.205Z,15.90
2023-02-08T08:23:23.355Z,15.50
2023-02-08T08:26:30.970Z,15.90
2023-02-08T08:29:44.951Z,14.70
2023-02-08T08:33:34.888Z,16.60
2023-02-08T08:36:48.333Z,15.80
2023-02-08T08:39:50.490Z,14.40
2023-02-08T08:43:19.003Z,13.60
2023-02-08T08:46:16.816Z,13.50
2023-02-08T08:49:27.593Z,13.80
2023-02-08T08:56:18.703Z,14.40
2023-02-08T08:58:50.186Z,14.40
2023-02-08T09:02:19.725Z,15.20
2023-02-08T09:05:22.347Z,13.80
2023-02-08T09:09:10.179Z,14.60
2023-02-08T09:26:48.786Z,15.10
2023-02-08T09:33:37.138Z,17.20
2023-02-08T09:37:40.189Z,17.40
2023-02-08T09:46:03.780Z,16.40
2023-02-08T09:49:36.259Z,18.10
2023-02-08T09:53:01.307Z,17.30
2023-02-08T09:57:15.788Z,20.30
2023-02-08T10:00:24.926Z,23.20
2023-02-08T10:10:55.252Z,18.30
2023-02-08T10:14:13.774Z,20.30
2023-02-08T10:22:32.697Z,19.60
2023-02-08T10:26:12.855Z,22.50
2023-02-08T10:33:17.236Z,23.80
2023-02-08T10:45:24.828Z,23.80
2023-02-08T10:51:56.881Z,28.40
2023-02-08T10:55:47.987Z,24.00
2023-02-08T10:59:20.823Z,25.70
2023-02-08T11:06:33.544Z,24.20
2023-02-08T11:10:02.319Z,26.30
2023-02-08T11:13:36.447Z,31.00
2023-02-08T11:20:09.364Z,33.10
2023-02-08T11:23:21.819Z,33.80
2023-02-08T11:26:53.833Z,32.10
2023-02-08T11:30:57.121Z,31.00
2023-02-08T11:39:05.821Z,26.50
2023-02-08T11:42:37.557Z,26.80
2023-02-08T11:59:00.854Z,25.00
2023-02-08T12:05:21.598Z,22.70
2023-02-08T12:08:49.743Z,27.20
2023-02-08T12:12:42.314Z,23.10
2023-02-08T12:16:53.993Z,25.20
2023-02-08T12:19:34.912Z,27.30
2023-02-08T12:26:46.617Z,24.80
2023-02-08T12:30:58.514Z,26.80
2023-02-08T12:40:16.782Z,29.00
2023-02-08T12:57:20.252Z,21.40
2023-02-08T13:00:36.105Z,22.10
2023-02-08T13:04:21.666Z,21.90
2023-02-08T13:10:42.768Z,26.10
2023-02-08T13:14:32.778Z,23.80
2023-02-08T13:17:54.085Z,17.80
2023-02-08T13:21:03.279Z,21.00
2023-02-08T13:24:21.839Z,20.00
2023-02-08T13:27:58.208Z,19.80
2023-02-08T13:32:11.804Z,22.50
2023-02-08T13:35:49.834Z,22.30
2023-02-08T13:39:07.921Z,21.80
2023-02-08T13:42:34.772Z,19.60
2023-02-08T13:46:06.081Z,23.60
2023-02-08T13:49:22.723Z,22.70
2023-02-08T13:52:48.420Z,24.70
2023-02-08T13:56:03.201Z,26.20
2023-02-08T14:03:41.731Z,16.60
2023-02-08T14:10:59.949Z,22.30
2023-02-08T14:28:28.892Z,20.90
2023-02-08T14:32:12.311Z,26.90
2023-02-08T14:35:21.997Z,25.90
2023-02-08T14:38:43.824Z,26.40
2023-02-08T14:42:22.784Z,22.50
2023-02-08T14:49:35.651Z,28.50
2023-02-08T14:53:17.200Z,29.10
2023-02-08T14:56:45.254Z,20.10
2023-02-08T15:00:20.019Z,24.30
2023-02-08T15:04:09.550Z,22.80
2023-02-08T15:08:10.761Z,30.20
2023-02-08T15:11:36.340Z,25.90
2023-02-08T15:15:20.925Z,29.50
2023-02-08T15:18:48.308Z,27.40
2023-02-08T15:22:18.219Z,28.90
2023-02-08T15:26:01.465Z,26.70
2023-02-08T15:29:43.819Z,24.50
2023-02-08T16:57:40.822Z,35.40
2023-02-08T17:08:45.395Z,40.20
2023-02-08T17:13:18.325Z,33.00
2023-02-08T17:16:35.463Z,66.20
2023-02-08T17:20:10.424Z,44.10
2023-02-08T17:23:42.325Z,40.30
2023-02-08T17:27:20.378Z,38.40
2023-02-08T17:30:45.823Z,46.10
2023-02-08T17:34:07.166Z,48.00
2023-02-08T17:37:51.050Z,38.10
2023-02-08T17:44:23.044Z,40.60
2023-02-08T17:47:45.556Z,43.70
2023-02-08T18:39:33.715Z,42.50
2023-02-08T18:42:55.086Z,50.80
2023-02-08T18:46:19.347Z,51.60
2023-02-08T18:49:53.353Z,53.60
2023-02-08T18:53:10.485Z,48.70
2023-02-08T18:56:38.556Z,54.90
2023-02-08T19:00:07.973Z,59.30
2023-02-08T19:03:17.461Z,57.30
2023-02-08T19:06:50.239Z,57.10
2023-02-08T19:10:03.558Z,60.00
2023-02-08T19:13:44.784Z,58.00
2023-02-08T19:17:31.054Z,59.40
2023-02-08T19:21:02.869Z,61.20
2023-02-08T19:24:27.839Z,58.10
2023-02-08T19:27:45.764Z,61.80
2023-02-08T19:31:17.270Z,95.60
2023-02-08T19:34:48.424Z,88.70
2023-02-08T19:38:03.427Z,72.10
2023-02-08T20:40:08.757Z,70.20
2023-02-08T20:43:36.049Z,69.60
2023-02-08T20:47:07.314Z,69.00
2023-02-08T20:50:36.510Z,59.30
2023-02-08T20:54:03.202Z,77.80
2023-02-08T21:00:46.553Z,58.20
2023-02-08T21:03:53.491Z,64.30
2023-02-08T21:07:29.196Z,68.70
2023-02-08T21:14:09.172Z,77.90
2023-02-08T21:17:14.675Z,66.50
2023-02-08T21:19:59.405Z,57.20
2023-02-08T21:23:02.758Z,62.10
2023-02-08T21:25:56.575Z,63.50
2023-02-08T21:29:10.798Z,53.90
2023-02-08T21:32:04.875Z,83.50
2023-02-08T21:34:42.581Z,53.00
2023-02-08T21:38:08.500Z,57.70
2023-02-08T21:41:23.109Z,57.70
2023-02-08T21:44:23.246Z,61.70
2023-02-08T21:47:21.800Z,52.40
2023-02-08T21:50:30.758Z,50.30
2023-02-08T21:53:29.869Z,54.60
2023-02-08T21:56:23.556Z,55.00
2023-02-08T21:59:13.688Z,54.70
2023-02-08T22:01:52.068Z,52.50
2023-02-08T22:04:42.233Z,61.90
2023-02-08T22:07:23.228Z,60.10
2023-02-08T22:10:11.915Z,62.10
2023-02-08T22:12:49.494Z,52.60
2023-02-08T22:15:28.317Z,53.20
2023-02-08T22:18:13.714Z,55.00
2023-02-08T22:20:59.646Z,57.50
2023-02-08T22:23:37.768Z,50.60
2023-02-08T22:26:18.694Z,51.30
2023-02-08T22:29:04.440Z,53.20
2023-02-08T22:31:52.103Z,56.30
2023-02-08T22:34:31.933Z,56.20
2023-02-08T22:37:47.872Z,53.50
2023-02-08T22:40:44.462Z,65.40
2023-02-08T22:43:26.905Z,54.10
2023-02-08T22:46:19.858Z,62.90
2023-02-08T22:49:08.945Z,55.00
2023-02-08T22:52:00.387Z,58.90
2023-02-08T22:54:48.363Z,55.00
2023-02-08T22:57:45.516Z,54.20
2023-02-08T23:00:41.025Z,56.70
2023-02-08T23:03:37.394Z,63.20
2023-02-08T23:06:29.935Z,61.70
2023-02-08T23:09:30.399Z,57.20
2023-02-08T23:12:21.910Z,51.90
2023-02-08T23:14:51.540Z,54.90
2023-02-08T23:17:39.367Z,54.80
2023-02-08T23:20:21.486Z,51.90
2023-02-08T23:22:52.826Z,55.20
2023-02-08T23:25:27.474Z,51.40
2023-02-08T23:28:02.463Z,56.90
2023-02-08T23:30:42.851Z,58.20
2023-02-08T23:33:24.628Z,58.90
2023-02-08T23:36:11.711Z,58.60
2023-02-08T23:38:54.278Z,54.00
2023-02-08T23:41:51.787Z,52.80
2023-02-08T23:44:41.499Z,58.50
2023-02-08T23:47:26.388Z,56.80
2023-02-08T23:50:14.419Z,65.30
2023-02-08T23:53:01.260Z,57.90
2023-02-08T23:55:46.741Z,58.00
2023-02-08T23:58:32.007Z,63.10
